Map

Track Data

SID SEASON NUMBER BASIN SUBBASIN NAME ISO_TIME NATURE LAT LON WMO_WIND WMO_PRES WMO_AGENCY TRACK_TYPE DIST2LAND LANDFALL IFLAG USA_AGENCY USA_ATCF_ID USA_LAT USA_LON USA_RECORD USA_STATUS USA_WIND USA_PRES USA_SSHS USA_R34_NE USA_R34_SE USA_R34_SW USA_R34_NW USA_R50_NE USA_R50_SE USA_R50_SW USA_R50_NW USA_R64_NE USA_R64_SE USA_R64_SW USA_R64_NW USA_POCI USA_ROCI USA_RMW USA_EYE TOKYO_LAT TOKYO_LON TOKYO_GRADE TOKYO_WIND TOKYO_PRES TOKYO_R50_DIR TOKYO_R50_LONG TOKYO_R50_SHORT TOKYO_R30_DIR TOKYO_R30_LONG TOKYO_R30_SHORT TOKYO_LAND CMA_LAT CMA_LON CMA_CAT CMA_WIND CMA_PRES HKO_LAT HKO_LON HKO_CAT HKO_WIND HKO_PRES NEWDELHI_LAT NEWDELHI_LON NEWDELHI_GRADE NEWDELHI_WIND NEWDELHI_PRES NEWDELHI_CI NEWDELHI_DP NEWDELHI_POCI REUNION_LAT REUNION_LON REUNION_TYPE REUNION_WIND REUNION_PRES REUNION_TNUM REUNION_CI REUNION_RMW REUNION_R34_NE REUNION_R34_SE REUNION_R34_SW REUNION_R34_NW REUNION_R50_NE REUNION_R50_SE REUNION_R50_SW REUNION_R50_NW REUNION_R64_NE REUNION_R64_SE REUNION_R64_SW REUNION_R64_NW BOM_LAT BOM_LON BOM_TYPE BOM_WIND BOM_PRES BOM_TNUM BOM_CI BOM_RMW BOM_R34_NE BOM_R34_SE BOM_R34_SW BOM_R34_NW BOM_R50_NE BOM_R50_SE BOM_R50_SW BOM_R50_NW BOM_R64_NE BOM_R64_SE BOM_R64_SW BOM_R64_NW BOM_ROCI BOM_POCI BOM_EYE BOM_POS_METHOD BOM_PRES_METHOD NADI_LAT NADI_LON NADI_CAT NADI_WIND NADI_PRES WELLINGTON_LAT WELLINGTON_LON WELLINGTON_WIND WELLINGTON_PRES DS824_LAT DS824_LON DS824_STAGE DS824_WIND DS824_PRES TD9636_LAT TD9636_LON TD9636_STAGE TD9636_WIND TD9636_PRES TD9635_LAT TD9635_LON TD9635_WIND TD9635_PRES TD9635_ROCI NEUMANN_LAT NEUMANN_LON NEUMANN_CLASS NEUMANN_WIND NEUMANN_PRES MLC_LAT MLC_LON MLC_CLASS MLC_WIND MLC_PRES USA_GUST BOM_GUST BOM_GUST_PER REUNION_GUST REUNION_GUST_PER USA_SEAHGT USA_SEARAD_NE USA_SEARAD_SE USA_SEARAD_SW USA_SEARAD_NW STORM_SPEED STORM_DIR
1927037S15153 1927 4 SP EA NOT_NAMED 1927-02-05 23:00:00 NR -15.1000 152.900 bom main 557 552 ______O_______ -1 -15.1000 152.900 5 265
1927037S15153 1927 4 SP EA NOT_NAMED 1927-02-06 00:00:00 TS -15.1070 152.818 main 552 544 ______P__O____ -1 -15.1105 152.827 -15.1000 152.800 TC 4 263
1927037S15153 1927 4 SP EA NOT_NAMED 1927-02-06 03:00:00 TS -15.1374 152.596 main 544 540 ______P__P____ -1 -15.1415 152.607 -15.1312 152.580 TC 4 262
1927037S15153 1927 4 SP EA NOT_NAMED 1927-02-06 06:00:00 TS -15.1673 152.376 main 547 540 ______P__P____ -1 -15.1716 152.389 -15.1617 152.360 TC 4 262
1927037S15153 1927 4 SP EA NOT_NAMED 1927-02-06 09:00:00 TS -15.1956 152.156 main 540 532 ______P__P____ -1 -15.2003 152.171 -15.1909 152.141 TC 4 263
1927037S15153 1927 4 SP EA NOT_NAMED 1927-02-06 12:00:00 TS -15.2227 151.941 main 529 523 ______P__P____ -1 -15.2270 151.957 -15.2184 151.925 TC 4 263
1927037S15153 1927 4 SP EA NOT_NAMED 1927-02-06 15:00:00 TS -15.2474 151.729 main 523 523 ______P__P____ -1 -15.2512 151.745 -15.2435 151.712 TC 4 263
1927037S15153 1927 4 SP EA NOT_NAMED 1927-02-06 18:00:00 TS -15.2692 151.520 main 528 524 ______P__P____ -1 -15.2725 151.537 -15.2658 151.503 TC 4 264
1927037S15153 1927 4 SP EA NOT_NAMED 1927-02-06 21:00:00 TS -15.2876 151.316 main 524 522 ______P__P____ -1 -15.2903 151.333 -15.2848 151.299 TC 4 265
1927037S15153 1927 4 SP EA NOT_NAMED 1927-02-06 23:00:00 TS -15.2977 151.183 bom main 522 520 ______O__P____ -1 -15.3000 151.200 -15.2954 151.166 TC 4 266
1927037S15153 1927 4 SP EA NOT_NAMED 1927-02-07 00:00:00 TS -15.3021 151.117 main 520 517 ______P__O____ -1 -15.3041 151.134 -15.3000 151.100 TC 4 267
1927037S15153 1927 4 SP EA NOT_NAMED 1927-02-07 03:00:00 TS -15.3127 150.924 main 517 516 ______P__P____ -1 -15.3142 150.941 -15.3112 150.907 TC 4 267
1927037S15153 1927 4 SP EA NOT_NAMED 1927-02-07 06:00:00 TS -15.3208 150.735 main 516 515 ______P__P____ -1 -15.3221 150.752 -15.3196 150.718 TC 4 268
1927037S15153 1927 4 SP EA NOT_NAMED 1927-02-07 09:00:00 TS -15.3281 150.549 main 515 515 ______P__P____ -1 -15.3293 150.565 -15.3268 150.533 TC 4 268
1927037S15153 1927 4 SP EA NOT_NAMED 1927-02-07 12:00:00 TS -15.3359 150.365 main 515 496 ______P__P____ -1 -15.3374 150.381 -15.3344 150.350 TC 4 267
1927037S15153 1927 4 SP EA NOT_NAMED 1927-02-07 15:00:00 TS -15.3460 150.181 main 496 472 ______P__P____ -1 -15.3480 150.197 -15.3440 150.166 TC 4 266
1927037S15153 1927 4 SP EA NOT_NAMED 1927-02-07 18:00:00 TS -15.3598 149.997 main 472 453 ______P__P____ -1 -15.3626 150.012 -15.3571 149.981 TC 4 265
1927037S15153 1927 4 SP EA NOT_NAMED 1927-02-07 21:00:00 TS -15.3790 149.809 main 453 443 ______P__P____ -1 -15.3827 149.826 -15.3752 149.793 TC 4 263
1927037S15153 1927 4 SP EA NOT_NAMED 1927-02-07 23:00:00 TS -15.3955 149.682 989 bom main 443 433 ______O__P____ -1 -15.4000 149.700 989 4 -15.3909 149.665 TC 4 262
1927037S15153 1927 4 SP EA NOT_NAMED 1927-02-08 00:00:00 TS -15.4037 149.627 main 433 424 ______P__O____ -1 -15.4074 149.654 -15.4000 149.600 TC 50 989 3 261
1927037S15153 1927 4 SP EA NOT_NAMED 1927-02-08 03:00:00 TS -15.4272 149.482 main 424 399 ______P__P____ -1 -15.4327 149.521 -15.4217 149.442 TC 3 260
1927037S15153 1927 4 SP EA NOT_NAMED 1927-02-08 06:00:00 TS -15.4557 149.338 main 399 390 ______P__P____ -1 -15.4633 149.390 -15.4481 149.286 TC 3 257
1927037S15153 1927 4 SP EA NOT_NAMED 1927-02-08 09:00:00 TS -15.4907 149.185 main 390 371 ______P__P____ -1 -15.5006 149.249 -15.4808 149.122 TC 3 256
1927037S15153 1927 4 SP EA NOT_NAMED 1927-02-08 12:00:00 TS -15.5339 149.014 main 371 346 ______P__P____ -1 -15.5460 149.085 -15.5218 148.943 TC 4 255
1927037S15153 1927 4 SP EA NOT_NAMED 1927-02-08 15:00:00 TS -15.5865 148.813 main 346 328 ______P__P____ -1 -15.6005 148.887 -15.5725 148.740 TC 4 255
1927037S15153 1927 4 SP EA NOT_NAMED 1927-02-08 18:00:00 TS -15.6501 148.573 main 322 294 ______P__P____ -1 -15.6655 148.642 -15.6347 148.504 TC 5 255
1927037S15153 1927 4 SP EA NOT_NAMED 1927-02-08 21:00:00 TS -15.7260 148.283 main 294 270 ______P__P____ -1 -15.7421 148.340 -15.7100 148.227 TC 6 255
1927037S15153 1927 4 SP EA NOT_NAMED 1927-02-08 23:00:00 TS -15.7841 148.057 bom main 270 261 ______O__P____ -1 -15.8000 148.100 -15.7683 148.015 TC 7 256
1927037S15153 1927 4 SP EA NOT_NAMED 1927-02-09 00:00:00 TS -15.8127 147.930 main 252 210 ______P__O____ -1 -15.8255 147.959 -15.8000 147.900 TC 9 257
1927037S15153 1927 4 SP EA NOT_NAMED 1927-02-09 03:00:00 TS -15.9090 147.475 main 210 160 ______P__P____ -1 -15.9089 147.493 -15.9090 147.458 TC 9 257
1927037S15153 1927 4 SP EA NOT_NAMED 1927-02-09 06:00:00 TS -16.0189 146.967 main 160 106 ______P__P____ -1 -16.0050 146.974 -16.0329 146.960 TC 10 257
1927037S15153 1927 4 SP EA NOT_NAMED 1927-02-09 09:00:00 TS -16.1424 146.423 main 96 42 ______P__P____ -1 -16.1167 146.422 -16.1681 146.424 TC 11 256
1927037S15153 1927 4 SP EA NOT_NAMED 1927-02-09 12:00:00 TS -16.2792 145.863 main 42 0 ______P__P____ -1 -16.2472 145.858 -16.3112 145.868 TC 11 255
1927037S15153 1927 4 SP EA NOT_NAMED 1927-02-09 15:00:00 TS -16.4294 145.305 bom main 0 0 ______O__P____ -1 -16.4000 145.300 -16.4588 145.309 TC 11 253
1927037S15153 1927 4 SP EA NOT_NAMED 1927-02-09 18:00:00 TS -16.5943 144.758 main 0 0 ______P__P____ -1 -16.5804 144.750 -16.6081 144.766 TC 11 252
1927037S15153 1927 4 SP EA NOT_NAMED 1927-02-09 21:00:00 TS -16.7648 144.240 main 0 0 ______P__P____ -1 -16.7735 144.222 -16.7560 144.257 TC 10 251
1927037S15153 1927 4 SP EA NOT_NAMED 1927-02-09 23:00:00 TS -16.8763 143.923 bom main 0 0 ______O__P____ -1 -16.9000 143.900 -16.8526 143.945 TC 9 249
1927037S15153 1927 4 SP EA NOT_NAMED 1927-02-10 00:00:00 TS -16.9343 143.777 main 0 0 ______P__O____ -1 -16.9686 143.755 -16.9000 143.800 TC 8 245
1927037S15153 1927 4 SP EA NOT_NAMED 1927-02-10 03:00:00 TS -17.1100 143.390 main 0 0 ______P__P____ -1 -17.1820 143.371 -17.0380 143.409 TC 8 243
1927037S15153 1927 4 SP EA NOT_NAMED 1927-02-10 06:00:00 TS -17.2836 143.067 main 0 0 ______P__P____ -1 -17.3966 143.056 -17.1706 143.079 TC 7 239
1927037S15153 1927 4 SP EA NOT_NAMED 1927-02-10 09:00:00 TS -17.4490 142.800 main 0 0 ______P__P____ -1 -17.5994 142.798 -17.2986 142.802 TC 6 236
1927037S15153 1927 4 SP EA NOT_NAMED 1927-02-10 12:00:00 TS -17.6001 142.577 main 0 0 ______P__P____ -1 -17.7771 142.585 -17.4231 142.569 TC 5 234
1927037S15153 1927 4 SP EA NOT_NAMED 1927-02-10 15:00:00 TS -17.7307 142.388 main 0 0 ______P__P____ -1 -17.9167 142.406 -17.5447 142.371 TC 4 235
1927037S15153 1927 4 SP EA NOT_NAMED 1927-02-10 18:00:00 TS -17.8344 142.224 main 0 0 ______P__P____ -1 -18.0046 142.248 -17.6643 142.199 TC 4 237
1927037S15153 1927 4 SP EA NOT_NAMED 1927-02-10 21:00:00 TS -17.9225 142.076 main 0 0 ______P__P____ -1 -18.0275 142.099 -17.7825 142.045 TC 3 243
1927037S15153 1927 4 SP EA NOT_NAMED 1927-02-10 23:00:00 TS -17.9536 141.983 bom main 0 0 ______O__P____ -1 -18.0000 142.000 -17.8609 141.948 TC 3 257
1927037S15153 1927 4 SP EA NOT_NAMED 1927-02-11 00:00:00 TS -17.9552 141.928 main 0 0 ______P__O____ -1 -17.9690 141.935 -17.9000 141.900 TC 4 299
1927037S15153 1927 4 SP EA NOT_NAMED 1927-02-11 03:00:00 NR -17.8274 141.749 main 0 0 ______P_______ -1 -17.8274 141.749 TC 5 315
1927037S15153 1927 4 SP EA NOT_NAMED 1927-02-11 06:00:00 NR -17.6247 141.575 main 0 0 ______P_______ -1 -17.6247 141.575 TC 6 325
1927037S15153 1927 4 SP EA NOT_NAMED 1927-02-11 09:00:00 NR -17.3759 141.410 main 0 0 ______P_______ -1 -17.3759 141.410 TC 6 330
1927037S15153 1927 4 SP EA NOT_NAMED 1927-02-11 12:00:00 NR -17.0960 141.253 main 0 0 ______P_______ -1 -17.0960 141.253 TC 7 333
1927037S15153 1927 4 SP EA NOT_NAMED 1927-02-11 15:00:00 NR -16.8000 141.100 bom main 10 10 ______O_______ -1 -16.8000 141.100 TC 7 334
1927037S15153 1927 4 SP EA NOT_NAMED 1927-02-11 18:00:00 NR -16.5005 140.949 main 39 39 ______P_______ -1 -16.5005 140.949 TC 7 334
1927037S15153 1927 4 SP EA NOT_NAMED 1927-02-11 21:00:00 NR -16.2003 140.799 main 57 57 ______P_______ -1 -16.2003 140.799 TC 7 334
1927037S15153 1927 4 SP EA NOT_NAMED 1927-02-11 23:00:00 NR -16.0000 140.700 bom main 74 ______O_______ -1 -16.0000 140.700 TC 7 334

Digital Typhoon Data and Search

About IBTrACS Database

This database is a web-friendly format of International Best Track Archive for Climate Stewardship (IBTrACS), a global best track data archive curated by NOAA dating back to 1842.

Updated: 2021-10-19